Time;durP1;ratioP1;P1;durP2;ratioP2;P2;SDS_P1;SDS_P2;PMS_P1;PMS_P2;Temp;Humidity;BMP_temperature;BMP_pressure;BME280_temperature;BME280_humidity;BME280_pressure;Samples;Min_cycle;Max_cycle;Signal;HPM_P1;HPM_P2
2022/06/11 00:00:52;;;;;;;8.55;2.50;;;;;;;;;;4973404;28;20058;-71
2022/06/11 00:03:19;;;;;;;11.40;2.50;;;;;;;;;;4976984;28;20120;-71
2022/06/11 00:05:45;;;;;;;11.82;2.67;;;;;;;;;;4958941;28;20065;-71
2022/06/11 00:08:13;;;;;;;11.55;2.75;;;;;;;;;;4982836;28;20034;-72
2022/06/11 00:10:40;;;;;;;8.70;2.58;;;;;;;;;;4975877;28;20034;-71
2022/06/11 00:13:08;;;;;;;10.75;2.88;;;;;;;;;;4978703;28;20037;-72
2022/06/11 00:15:36;;;;;;;13.23;3.30;;;;;;;;;;4976007;28;20035;-71
2022/06/11 00:18:04;;;;;;;13.40;3.10;;;;;;;;;;4964790;28;20271;-72
2022/06/11 00:20:32;;;;;;;11.45;3.13;;;;;;;;;;4961290;28;20100;-72
2022/06/11 00:22:59;;;;;;;10.65;2.70;;;;;;;;;;4973231;28;20764;-74
2022/06/11 00:25:27;;;;;;;11.02;3.30;;;;;;;;;;4962985;28;20075;-72
2022/06/11 00:27:53;;;;;;;14.65;3.17;;;;;;;;;;4978634;28;20752;-72
2022/06/11 00:30:20;;;;;;;14.10;2.90;;;;;;;;;;4979251;28;20087;-72
2022/06/11 00:32:49;;;;;;;13.43;3.10;;;;;;;;;;4960496;28;20717;-71
2022/06/11 00:35:16;;;;;;;13.63;3.40;;;;;;;;;;4963594;28;20100;-71
2022/06/11 00:37:44;;;;;;;11.48;2.70;;;;;;;;;;4960633;28;20325;-72
2022/06/11 00:40:15;;;;;;;10.23;2.55;;;;;;;;;;4978471;28;20633;-73
2022/06/11 00:42:43;;;;;;;11.35;2.80;;;;;;;;;;4957888;28;20030;-72
2022/06/11 00:45:27;;;;;;;13.15;2.80;;;;;;;;;;4962691;28;20026;-72
2022/06/11 00:48:13;;;;;;;10.90;2.85;;;;;;;;;;4975464;28;20744;-72
2022/06/11 00:50:55;;;;;;;14.52;3.17;;;;;;;;;;4952983;28;20452;-72
2022/06/11 00:53:40;;;;;;;14.82;3.10;;;;;;;;;;4977546;28;20117;-73
2022/06/11 00:56:10;;;;;;;11.15;3.17;;;;;;;;;;4981057;28;20141;-72
2022/06/11 00:58:38;;;;;;;9.55;2.80;;;;;;;;;;4959801;28;20400;-73
2022/06/11 01:01:05;;;;;;;10.70;3.20;;;;;;;;;;4978835;28;20596;-72
2022/06/11 01:03:34;;;;;;;13.95;3.08;;;;;;;;;;4977732;28;20068;-71
2022/06/11 01:06:06;;;;;;;10.10;2.35;;;;;;;;;;4961966;28;20049;-71
2022/06/11 01:08:47;;;;;;;9.05;2.10;;;;;;;;;;4975589;28;20554;-73
2022/06/11 01:11:23;;;;;;;8.02;2.20;;;;;;;;;;4978537;28;20095;-71
2022/06/11 01:13:52;;;;;;;9.10;2.20;;;;;;;;;;4958907;28;20076;-72
2022/06/11 01:16:24;;;;;;;11.10;2.38;;;;;;;;;;4979387;28;20040;-71
2022/06/11 01:18:53;;;;;;;12.95;2.85;;;;;;;;;;4956548;28;20083;-72
2022/06/11 01:21:22;;;;;;;11.48;2.78;;;;;;;;;;4977436;28;20042;-72
2022/06/11 01:24:03;;;;;;;10.48;2.75;;;;;;;;;;4962746;28;20108;-71
2022/06/11 01:26:56;;;;;;;11.13;2.90;;;;;;;;;;4954571;28;20038;-72
2022/06/11 01:29:34;;;;;;;10.75;2.70;;;;;;;;;;4978830;28;20076;-71
2022/06/11 01:32:05;;;;;;;9.93;2.88;;;;;;;;;;4975913;28;20034;-73
2022/06/11 01:34:31;;;;;;;10.95;2.90;;;;;;;;;;4978042;28;20023;-71
2022/06/11 01:36:57;;;;;;;;;;;;;;;;;;4975964;28;20829;-73
2022/06/11 01:39:23;;;;;;;13.02;3.00;;;;;;;;;;4960534;28;20165;-71
2022/06/11 01:41:49;;;;;;;;;;;;;;;;;;4971822;28;20029;-71
2022/06/11 01:44:19;;;;;;;11.60;3.00;;;;;;;;;;4978034;28;20371;-71
2022/06/11 01:46:47;;;;;;;11.15;2.65;;;;;;;;;;4975649;28;20034;-71
2022/06/11 01:49:25;;;;;;;11.85;3.20;;;;;;;;;;4978045;28;20026;-71
2022/06/11 01:51:55;;;;;;;12.38;3.00;;;;;;;;;;4955554;28;20409;-72
2022/06/11 01:54:36;;;;;;;11.05;3.00;;;;;;;;;;4973647;28;20029;-71
2022/06/11 01:57:21;;;;;;;13.98;3.17;;;;;;;;;;4974906;28;20074;-72
2022/06/11 02:00:02;;;;;;;10.98;2.95;;;;;;;;;;4971201;28;20049;-71
2022/06/11 02:02:47;;;;;;;12.20;3.60;;;;;;;;;;4960564;28;20057;-71
2022/06/11 02:05:21;;;;;;;12.18;3.40;;;;;;;;;;4965352;28;20141;-71
2022/06/11 02:07:51;;;;;;;11.60;2.60;;;;;;;;;;4958829;28;20030;-71
2022/06/11 02:10:36;;;;;;;11.55;2.65;;;;;;;;;;4979380;28;20026;-70
2022/06/11 02:13:24;;;;;;;12.98;2.92;;;;;;;;;;4976429;28;20026;-72
2022/06/11 02:15:54;;;;;;;12.52;3.08;;;;;;;;;;4956552;28;20156;-72
2022/06/11 02:18:23;;;;;;;12.27;2.90;;;;;;;;;;4976158;28;20045;-72
2022/06/11 02:20:57;;;;;;;11.98;3.20;;;;;;;;;;4957660;28;20041;-71
2022/06/11 02:23:30;;;;;;;12.95;3.05;;;;;;;;;;4975370;28;20481;-71
2022/06/11 02:25:59;;;;;;;11.68;2.60;;;;;;;;;;4974430;28;20073;-74
2022/06/11 02:28:28;;;;;;;12.13;2.97;;;;;;;;;;4976351;28;20030;-70
2022/06/11 02:30:58;;;;;;;11.13;2.80;;;;;;;;;;4976517;28;20045;-70
2022/06/11 02:33:25;;;;;;;11.20;3.35;;;;;;;;;;4975732;28;20032;-71
2022/06/11 02:36:17;;;;;;;11.85;3.00;;;;;;;;;;4958760;28;20137;-71
2022/06/11 02:38:45;;;;;;;11.55;2.97;;;;;;;;;;4972427;28;20026;-70
2022/06/11 02:41:18;;;;;;;11.90;2.90;;;;;;;;;;4960008;28;20034;-71
2022/06/11 02:43:45;;;;;;;9.90;2.70;;;;;;;;;;4969973;28;20033;-71
2022/06/11 02:49:00;;;;;;;12.52;3.40;;;;;;;;;;4978566;28;20060;-71
2022/06/11 02:51:28;;;;;;;15.77;3.70;;;;;;;;;;4963568;28;20121;-71
2022/06/11 02:53:56;;;;;;;13.48;3.83;;;;;;;;;;4968527;28;20233;-71
2022/06/11 02:56:22;;;;;;;16.13;3.42;;;;;;;;;;4956254;28;20396;-71
2022/06/11 02:58:48;;;;;;;;;;;;;;;;;;4971667;28;20095;-72
2022/06/11 03:01:14;;;;;;;12.27;3.28;;;;;;;;;;4978254;28;20346;-71
2022/06/11 03:03:40;;;;;;;14.73;3.13;;;;;;;;;;4971465;28;20037;-71
2022/06/11 03:06:06;;;;;;;;;;;;;;;;;;4975762;28;20040;-71
2022/06/11 03:08:33;;;;;;;13.57;3.63;;;;;;;;;;4978031;28;19913;-71
2022/06/11 03:10:59;;;;;;;14.07;3.80;;;;;;;;;;4976167;28;20113;-72
2022/06/11 03:13:25;;;;;;;;;;;;;;;;;;4977894;28;20460;-72
2022/06/11 03:15:52;;;;;;;11.82;3.67;;;;;;;;;;4976521;28;19910;-71
2022/06/11 03:18:18;;;;;;;12.75;3.75;;;;;;;;;;4976411;28;20258;-71
2022/06/11 03:20:45;;;;;;;12.50;3.58;;;;;;;;;;4976309;28;20026;-71
2022/06/11 03:23:12;;;;;;;10.23;3.03;;;;;;;;;;4975023;28;20424;-71
2022/06/11 03:25:39;;;;;;;11.93;3.20;;;;;;;;;;4955807;28;20041;-71
2022/06/11 03:28:20;;;;;;;13.07;3.17;;;;;;;;;;4979350;28;20038;-71
2022/06/11 03:30:47;;;;;;;13.63;3.13;;;;;;;;;;4976287;28;20034;-71
2022/06/11 03:33:13;;;;;;;13.50;3.30;;;;;;;;;;4978042;28;20433;-72
2022/06/11 03:35:41;;;;;;;13.90;3.42;;;;;;;;;;4973142;28;20034;-72
2022/06/11 03:38:08;;;;;;;10.48;2.88;;;;;;;;;;4977063;28;20052;-71
2022/06/11 03:40:35;;;;;;;10.63;3.05;;;;;;;;;;4958623;28;20132;-73
2022/06/11 03:43:01;;;;;;;12.55;2.85;;;;;;;;;;4982194;28;20380;-73
2022/06/11 03:45:27;;;;;;;;;;;;;;;;;;4976249;28;20514;-71
2022/06/11 03:47:53;;;;;;;12.15;3.20;;;;;;;;;;4958848;28;19924;-71
2022/06/11 03:50:24;;;;;;;12.80;3.00;;;;;;;;;;4973855;28;20034;-71
2022/06/11 03:52:50;;;;;;;14.27;2.95;;;;;;;;;;4972272;28;20253;-71
2022/06/11 03:55:18;;;;;;;12.02;3.55;;;;;;;;;;4979592;28;20388;-72
2022/06/11 03:57:46;;;;;;;12.25;3.00;;;;;;;;;;4975283;28;20065;-71
2022/06/11 04:00:16;;;;;;;11.48;3.28;;;;;;;;;;4977875;28;20046;-72
2022/06/11 04:02:43;;;;;;;11.85;3.22;;;;;;;;;;4973731;28;20185;-72
2022/06/11 04:05:11;;;;;;;10.13;3.17;;;;;;;;;;4962271;28;20037;-72
2022/06/11 04:07:38;;;;;;;12.70;3.30;;;;;;;;;;4960221;28;20507;-72
2022/06/11 04:10:07;;;;;;;11.02;3.00;;;;;;;;;;4980067;28;20029;-72
2022/06/11 04:12:34;;;;;;;10.43;2.78;;;;;;;;;;4977607;28;20092;-70
2022/06/11 04:15:01;;;;;;;13.00;3.70;;;;;;;;;;4963629;28;20028;-71
2022/06/11 04:17:29;;;;;;;13.43;3.08;;;;;;;;;;4980421;28;20042;-72
2022/06/11 04:19:55;;;;;;;10.73;2.80;;;;;;;;;;4972900;28;20103;-71
2022/06/11 04:22:22;;;;;;;14.00;3.63;;;;;;;;;;4978032;28;20040;-71
2022/06/11 04:24:50;;;;;;;11.05;2.88;;;;;;;;;;4973420;28;20038;-71
2022/06/11 04:27:18;;;;;;;10.85;2.95;;;;;;;;;;4966182;28;20062;-71
2022/06/11 04:29:52;;;;;;;11.85;2.72;;;;;;;;;;4952059;28;20392;-71
2022/06/11 04:32:20;;;;;;;11.45;2.95;;;;;;;;;;4955259;28;20035;-70
2022/06/11 04:34:48;;;;;;;12.18;2.53;;;;;;;;;;4951857;28;20072;-71
2022/06/11 04:37:18;;;;;;;10.43;3.00;;;;;;;;;;4955486;28;20088;-73
2022/06/11 04:39:48;;;;;;;9.13;2.63;;;;;;;;;;4950773;28;20388;-71
2022/06/11 04:42:16;;;;;;;11.07;3.03;;;;;;;;;;4941570;28;20049;-71
2022/06/11 04:44:44;;;;;;;10.45;2.60;;;;;;;;;;4953672;28;20034;-71
2022/06/11 04:47:12;;;;;;;12.40;3.00;;;;;;;;;;4955771;28;20098;-70
2022/06/11 04:49:39;;;;;;;10.30;2.80;;;;;;;;;;4939283;28;20437;-70
2022/06/11 04:52:07;;;;;;;11.57;2.90;;;;;;;;;;4954838;28;20025;-70
2022/06/11 04:54:33;;;;;;;13.48;2.47;;;;;;;;;;4952658;28;20446;-73
2022/06/11 04:57:00;;;;;;;15.55;2.72;;;;;;;;;;4962289;28;20022;-71
2022/06/11 04:59:26;;;;;;;11.05;2.35;;;;;;;;;;4960315;28;20044;-73
2022/06/11 05:01:52;;;;;;;11.75;2.50;;;;;;;;;;4954437;28;20085;-73
2022/06/11 05:04:18;;;;;;;15.35;2.80;;;;;;;;;;4953310;28;20551;-71
2022/06/11 05:06:44;;;;;;;;;;;;;;;;;;4954174;28;20081;-70
2022/06/11 05:09:12;;;;;;;12.57;2.60;;;;;;;;;;4953089;28;20024;-70
2022/06/11 05:11:38;;;;;;;14.38;3.05;;;;;;;;;;4954842;28;20109;-70
2022/06/11 05:14:04;;;;;;;;;;;;;;;;;;4954991;28;20037;-72
2022/06/11 05:16:31;;;;;;;13.75;2.90;;;;;;;;;;4956755;28;20283;-71
2022/06/11 05:18:57;;;;;;;10.88;2.75;;;;;;;;;;4948378;28;20550;-73
2022/06/11 05:21:23;;;;;;;;;;;;;;;;;;4938751;28;20630;-73
2022/06/11 05:23:50;;;;;;;12.60;2.53;;;;;;;;;;4948800;28;19917;-71
2022/06/11 05:26:18;;;;;;;15.35;3.92;;;;;;;;;;4961790;28;20022;-72
2022/06/11 05:28:44;;;;;;;16.30;4.55;;;;;;;;;;4954625;28;20039;-71
2022/06/11 05:31:11;;;;;;;14.68;4.00;;;;;;;;;;4956548;28;20033;-71
2022/06/11 05:33:37;;;;;;;17.73;3.92;;;;;;;;;;4932441;28;20034;-72
2022/06/11 05:36:03;;;;;;;12.52;3.38;;;;;;;;;;4957244;28;20207;-71
2022/06/11 05:38:30;;;;;;;11.35;3.38;;;;;;;;;;4958486;28;20034;-71
2022/06/11 05:40:56;;;;;;;13.57;3.08;;;;;;;;;;4952796;28;20043;-73
2022/06/11 05:43:23;;;;;;;13.32;3.55;;;;;;;;;;4955593;28;20027;-71
2022/06/11 05:46:04;;;;;;;10.95;3.00;;;;;;;;;;4949003;28;20181;-71
2022/06/11 05:48:35;;;;;;;12.65;3.33;;;;;;;;;;4954480;28;20069;-71
2022/06/11 05:51:02;;;;;;;12.75;3.65;;;;;;;;;;4954906;28;20161;-71
2022/06/11 05:53:29;;;;;;;13.02;3.50;;;;;;;;;;4949281;28;20029;-72
2022/06/11 05:55:58;;;;;;;10.63;3.03;;;;;;;;;;4947417;28;20389;-71
2022/06/11 05:58:37;;;;;;;13.00;3.10;;;;;;;;;;4951357;28;20205;-72
2022/06/11 06:01:05;;;;;;;10.02;2.95;;;;;;;;;;4947268;28;20038;-72
2022/06/11 06:03:33;;;;;;;11.77;3.33;;;;;;;;;;4946809;28;20103;-71
2022/06/11 06:06:01;;;;;;;13.48;3.10;;;;;;;;;;4950314;28;20058;-72
2022/06/11 06:08:27;;;;;;;12.82;3.58;;;;;;;;;;4953973;28;20752;-71
2022/06/11 06:10:54;;;;;;;10.68;2.97;;;;;;;;;;4951420;28;20046;-72
2022/06/11 06:16:06;;;;;;;13.85;2.58;;;;;;;;;;4955940;28;20468;-72
2022/06/11 06:18:34;;;;;;;11.13;2.53;;;;;;;;;;4948543;28;20034;-72
2022/06/11 06:21:01;;;;;;;13.85;3.30;;;;;;;;;;4912680;28;20180;-71
2022/06/11 06:23:29;;;;;;;13.05;3.22;;;;;;;;;;4929540;28;20050;-72
2022/06/11 06:25:56;;;;;;;11.57;3.08;;;;;;;;;;4958922;28;20052;-71
2022/06/11 06:28:23;;;;;;;9.63;2.80;;;;;;;;;;4963873;28;20053;-72
2022/06/11 06:30:51;;;;;;;12.93;2.60;;;;;;;;;;4963127;28;20030;-71
2022/06/11 06:33:18;;;;;;;14.20;3.05;;;;;;;;;;4960502;28;20462;-72
2022/06/11 06:35:45;;;;;;;13.48;2.83;;;;;;;;;;4959853;28;20037;-72
2022/06/11 06:38:13;;;;;;;12.70;2.97;;;;;;;;;;4970421;28;20538;-72
2022/06/11 06:40:42;;;;;;;14.32;3.00;;;;;;;;;;4948234;28;20556;-72
2022/06/11 06:43:10;;;;;;;11.63;2.97;;;;;;;;;;4962879;28;20026;-71
2022/06/11 06:45:37;;;;;;;13.43;2.95;;;;;;;;;;4963816;28;20069;-71
2022/06/11 06:48:03;;;;;;;9.80;2.47;;;;;;;;;;4963859;28;20030;-72
2022/06/11 06:50:31;;;;;;;13.95;2.80;;;;;;;;;;4956911;28;20097;-72
2022/06/11 06:52:58;;;;;;;12.93;2.75;;;;;;;;;;4956301;28;20444;-72
2022/06/11 06:55:24;;;;;;;11.10;2.75;;;;;;;;;;4951260;28;20093;-72
2022/06/11 06:57:51;;;;;;;11.20;2.88;;;;;;;;;;4901435;28;20038;-73
2022/06/11 07:00:18;;;;;;;10.02;2.97;;;;;;;;;;4915272;28;20064;-72
2022/06/11 07:02:45;;;;;;;12.70;3.05;;;;;;;;;;4910631;28;20038;-71
2022/06/11 07:05:12;;;;;;;10.27;2.45;;;;;;;;;;4924276;28;20405;-71
2022/06/11 07:07:39;;;;;;;10.15;2.58;;;;;;;;;;4914219;28;20060;-72
2022/06/11 07:10:07;;;;;;;12.02;3.50;;;;;;;;;;4907858;28;20038;-71
2022/06/11 07:12:33;;;;;;;11.40;2.88;;;;;;;;;;4907501;28;20058;-71
2022/06/11 07:15:00;;;;;;;12.23;3.20;;;;;;;;;;4908613;28;20437;-71
2022/06/11 07:17:28;;;;;;;12.10;3.08;;;;;;;;;;4907147;28;20062;-71
2022/06/11 07:19:57;;;;;;;14.13;3.00;;;;;;;;;;4908497;28;20030;-74
2022/06/11 07:22:26;;;;;;;10.45;2.30;;;;;;;;;;4916459;28;20026;-72
2022/06/11 07:24:52;;;;;;;12.00;2.47;;;;;;;;;;4910333;28;20457;-73
2022/06/11 07:27:25;;;;;;;11.10;2.65;;;;;;;;;;4923039;28;20038;-71
2022/06/11 07:30:01;;;;;;;11.15;3.15;;;;;;;;;;4895243;28;20634;-72
2022/06/11 07:32:29;;;;;;;11.23;3.38;;;;;;;;;;4900950;28;20257;-71
2022/06/11 07:34:55;;;;;;;9.90;3.15;;;;;;;;;;4959387;28;20057;-76
2022/06/11 07:37:21;;;;;;;10.85;2.65;;;;;;;;;;4966697;28;20136;-77
2022/06/11 07:39:48;;;;;;;10.23;2.63;;;;;;;;;;4959994;28;20044;-79
2022/06/11 07:42:14;;;;;;;11.40;3.13;;;;;;;;;;4949256;28;20050;-79
2022/06/11 07:44:40;;;;;;;8.10;2.38;;;;;;;;;;4962235;28;20037;-76
2022/06/11 07:47:07;;;;;;;11.52;2.78;;;;;;;;;;4962636;28;20034;-78
2022/06/11 07:49:33;;;;;;;11.65;2.28;;;;;;;;;;4961528;28;20038;-76
2022/06/11 07:51:59;;;;;;;12.23;2.95;;;;;;;;;;4961990;28;20030;-77
2022/06/11 07:54:26;;;;;;;10.40;2.85;;;;;;;;;;4952617;28;20038;-78
2022/06/11 07:56:52;;;;;;;12.63;2.72;;;;;;;;;;4959947;28;20117;-77
2022/06/11 07:59:19;;;;;;;11.02;2.33;;;;;;;;;;4960835;28;20581;-77
2022/06/11 08:01:47;;;;;;;11.20;2.35;;;;;;;;;;4958810;28;20034;-77
2022/06/11 08:04:14;;;;;;;10.27;2.45;;;;;;;;;;4967421;28;20038;-77
2022/06/11 08:06:42;;;;;;;8.88;2.38;;;;;;;;;;4962942;28;20285;-77
2022/06/11 08:09:09;;;;;;;12.88;3.13;;;;;;;;;;4975787;28;20129;-78
2022/06/11 08:11:35;;;;;;;8.75;2.35;;;;;;;;;;4964456;28;20086;-77
2022/06/11 08:14:02;;;;;;;8.98;2.30;;;;;;;;;;4964138;28;20038;-77
2022/06/11 08:16:36;;;;;;;11.43;2.58;;;;;;;;;;4969011;28;20022;-78
2022/06/11 08:19:06;;;;;;;8.45;2.08;;;;;;;;;;4980578;28;20030;-78
2022/06/11 08:21:39;;;;;;;9.43;2.58;;;;;;;;;;4984462;28;20306;-78
2022/06/11 08:24:09;;;;;;;9.90;2.28;;;;;;;;;;4981325;28;20110;-77
2022/06/11 08:26:37;;;;;;;10.05;1.90;;;;;;;;;;4977058;28;20077;-78
2022/06/11 08:29:13;;;;;;;8.48;2.08;;;;;;;;;;4959765;28;20194;-79
2022/06/11 08:31:40;;;;;;;7.97;2.20;;;;;;;;;;4957631;28;20034;-78
2022/06/11 08:34:08;;;;;;;12.30;2.05;;;;;;;;;;4961583;28;20031;-78
2022/06/11 08:36:36;;;;;;;11.50;2.33;;;;;;;;;;4942568;28;20753;-77
2022/06/11 08:39:10;;;;;;;11.18;2.30;;;;;;;;;;4957970;28;20027;-73
2022/06/11 08:41:57;;;;;;;8.98;1.85;;;;;;;;;;4954335;28;20078;-73
2022/06/11 08:44:42;;;;;;;8.02;1.85;;;;;;;;;;4955185;28;20065;-74
2022/06/11 08:47:13;;;;;;;8.52;2.00;;;;;;;;;;4961386;28;20038;-74
2022/06/11 08:50:00;;;;;;;11.15;2.00;;;;;;;;;;4941866;28;20126;-73
2022/06/11 08:52:31;;;;;;;11.43;2.47;;;;;;;;;;4946775;28;20054;-73
2022/06/11 08:54:58;;;;;;;8.88;2.20;;;;;;;;;;4940414;28;20035;-73
2022/06/11 08:57:46;;;;;;;7.38;1.88;;;;;;;;;;4950556;28;20070;-72
2022/06/11 09:00:16;;;;;;;9.55;1.90;;;;;;;;;;4950435;28;20039;-78
2022/06/11 09:03:14;;;;;;;8.40;1.90;;;;;;;;;;4940274;28;20038;-78
2022/06/11 09:06:00;;;;;;;9.15;1.65;;;;;;;;;;4937209;28;20693;-73
2022/06/11 09:08:44;;;;;;;6.63;1.60;;;;;;;;;;4942789;28;20081;-73
2022/06/11 09:11:23;;;;;;;7.05;1.77;;;;;;;;;;4949747;28;20031;-68
2022/06/11 09:13:49;;;;;;;9.07;1.55;;;;;;;;;;4934474;28;20086;-70
2022/06/11 09:16:16;;;;;;;9.50;1.73;;;;;;;;;;4943789;28;20724;-71
2022/06/11 09:19:02;;;;;;;10.25;1.80;;;;;;;;;;4932431;28;20630;-70
2022/06/11 09:21:46;;;;;;;7.72;1.50;;;;;;;;;;4947921;28;20038;-71
2022/06/11 09:24:18;;;;;;;7.80;1.70;;;;;;;;;;4954573;28;20130;-71
2022/06/11 09:26:45;;;;;;;8.13;2.10;;;;;;;;;;4945555;28;20046;-70
2022/06/11 09:29:30;;;;;;;15.40;8.85;;;;;;;;;;4979671;28;20054;-75
2022/06/11 09:32:03;;;;;;;7.07;2.15;;;;;;;;;;4969963;28;20026;-74
2022/06/11 09:34:37;;;;;;;6.93;2.17;;;;;;;;;;4962159;28;20069;-73
2022/06/11 09:37:12;;;;;;;9.02;2.00;;;;;;;;;;4976449;28;20191;-74
2022/06/11 09:39:40;;;;;;;9.32;2.47;;;;;;;;;;4975191;28;20371;-77
2022/06/11 09:42:28;;;;;;;6.53;1.50;;;;;;;;;;4953261;28;20343;-75
2022/06/11 09:44:58;;;;;;;7.43;1.50;;;;;;;;;;4949727;28;20034;-75
2022/06/11 09:47:29;;;;;;;6.70;1.25;;;;;;;;;;4948306;28;20399;-75
2022/06/11 09:50:08;;;;;;;4.60;1.20;;;;;;;;;;4944506;28;20592;-76
2022/06/11 09:52:44;;;;;;;4.78;1.30;;;;;;;;;;4946609;28;20022;-74
2022/06/11 09:55:30;;;;;;;6.53;1.65;;;;;;;;;;4964149;28;20042;-76
2022/06/11 09:58:12;;;;;;;6.90;1.50;;;;;;;;;;4958059;28;20070;-76
2022/06/11 10:00:43;;;;;;;6.38;1.35;;;;;;;;;;4962325;28;20038;-76
2022/06/11 10:03:30;;;;;;;7.97;2.15;;;;;;;;;;4967223;28;20029;-76
2022/06/11 10:06:01;;;;;;;7.03;2.00;;;;;;;;;;4942855;28;20619;-76
2022/06/11 10:08:43;;;;;;;8.98;1.65;;;;;;;;;;4964080;28;20106;-75
2022/06/11 10:11:29;;;;;;;11.13;4.10;;;;;;;;;;4961641;28;20165;-76
2022/06/11 10:13:58;;;;;;;10.55;2.20;;;;;;;;;;4946475;28;20053;-76
2022/06/11 10:16:39;;;;;;;7.05;1.90;;;;;;;;;;4965077;28;20124;-76
2022/06/11 10:19:14;;;;;;;7.00;1.63;;;;;;;;;;4958796;28;20031;-76
2022/06/11 10:21:54;;;;;;;7.93;1.40;;;;;;;;;;4960125;28;20050;-75
2022/06/11 10:24:23;;;;;;;7.47;1.30;;;;;;;;;;4962100;28;20026;-75
2022/06/11 10:27:01;;;;;;;7.68;1.60;;;;;;;;;;4957682;28;20061;-76
2022/06/11 10:29:37;;;;;;;6.22;1.48;;;;;;;;;;4953727;28;20413;-76
2022/06/11 10:32:40;;;;;;;4.53;1.10;;;;;;;;;;4967486;28;20605;-75
2022/06/11 10:35:22;;;;;;;5.88;1.30;;;;;;;;;;4871308;29;20071;-75
2022/06/11 10:37:57;;;;;;;7.30;1.55;;;;;;;;;;4880727;29;20518;-76
2022/06/11 10:40:26;;;;;;;8.32;2.30;;;;;;;;;;4891209;29;20499;-76
2022/06/11 10:43:10;;;;;;;9.73;1.60;;;;;;;;;;4871528;29;20193;-75
2022/06/11 10:45:38;;;;;;;4.72;1.30;;;;;;;;;;4881864;29;20568;-75
2022/06/11 10:48:13;;;;;;;5.53;1.30;;;;;;;;;;4879647;29;20047;-76
2022/06/11 10:50:41;;;;;;;5.97;1.30;;;;;;;;;;4877879;29;20147;-74
2022/06/11 10:53:25;;;;;;;6.07;1.20;;;;;;;;;;4871854;29;20040;-75
2022/06/11 10:56:01;;;;;;;4.60;1.15;;;;;;;;;;4882100;29;20040;-76
2022/06/11 10:58:33;;;;;;;8.15;1.55;;;;;;;;;;4885855;29;20040;-75
2022/06/11 11:01:26;;;;;;;5.35;1.23;;;;;;;;;;4871108;29;20071;-75
2022/06/11 11:03:57;;;;;;;6.70;1.40;;;;;;;;;;4865996;29;20060;-75
2022/06/11 11:06:26;;;;;;;7.85;1.42;;;;;;;;;;4886381;29;20142;-76
2022/06/11 11:08:58;;;;;;;6.18;1.27;;;;;;;;;;4918839;28;20129;-75
2022/06/11 11:11:26;;;;;;;8.55;1.50;;;;;;;;;;4970392;28;20014;-75
2022/06/11 11:14:00;;;;;;;8.07;1.52;;;;;;;;;;4955312;28;20547;-75
2022/06/11 11:16:31;;;;;;;9.05;1.73;;;;;;;;;;4957383;28;20046;-76
2022/06/11 11:19:05;;;;;;;6.20;1.58;;;;;;;;;;4971473;28;20749;-75
2022/06/11 11:21:38;;;;;;;6.82;1.60;;;;;;;;;;4977908;28;20394;-75
2022/06/11 11:24:17;;;;;;;7.20;1.50;;;;;;;;;;4982391;28;20030;-70
2022/06/11 11:27:01;;;;;;;6.57;1.30;;;;;;;;;;4950588;28;20060;-70
2022/06/11 11:29:33;;;;;;;6.30;1.30;;;;;;;;;;4959882;28;20060;-70
2022/06/11 11:32:06;;;;;;;7.45;1.50;;;;;;;;;;4964762;28;20314;-70
2022/06/11 11:34:53;;;;;;;8.70;1.60;;;;;;;;;;4958510;28;20042;-69
2022/06/11 11:37:22;;;;;;;7.80;1.55;;;;;;;;;;4969773;28;20035;-69
2022/06/11 11:39:56;;;;;;;6.68;1.50;;;;;;;;;;4959236;28;20103;-72
2022/06/11 11:42:24;;;;;;;6.82;1.50;;;;;;;;;;4968583;28;20031;-70
2022/06/11 11:44:51;;;;;;;6.53;1.65;;;;;;;;;;4944757;28;20129;-71
2022/06/11 11:47:27;;;;;;;6.53;1.33;;;;;;;;;;4966761;28;20038;-70
2022/06/11 11:50:04;;;;;;;6.50;1.25;;;;;;;;;;4982566;28;20038;-76
2022/06/11 11:52:31;;;;;;;6.50;1.50;;;;;;;;;;4982156;28;20057;-74
2022/06/11 11:55:11;;;;;;;7.00;1.40;;;;;;;;;;4970023;28;20027;-71
2022/06/11 11:57:38;;;;;;;6.38;1.50;;;;;;;;;;4973155;28;20568;-71
2022/06/11 12:00:26;;;;;;;6.45;1.50;;;;;;;;;;4963674;28;20027;-76
2022/06/11 12:03:05;;;;;;;5.75;1.20;;;;;;;;;;4957457;28;21702;-76
2022/06/11 12:05:50;;;;;;;6.03;1.30;;;;;;;;;;4974054;28;20405;-75
2022/06/11 12:08:22;;;;;;;8.02;1.40;;;;;;;;;;4969691;28;20398;-76
2022/06/11 12:10:51;;;;;;;6.60;1.20;;;;;;;;;;4973609;28;20058;-75
2022/06/11 12:13:38;;;;;;;7.75;1.63;;;;;;;;;;4977619;28;20031;-75
2022/06/11 12:16:06;;;;;;;6.10;1.45;;;;;;;;;;4975883;28;20033;-76
2022/06/11 12:18:43;;;;;;;6.75;1.30;;;;;;;;;;4978665;28;20042;-75
2022/06/11 12:21:13;;;;;;;8.85;1.50;;;;;;;;;;4978400;28;20030;-75
2022/06/11 12:23:44;;;;;;;6.00;1.50;;;;;;;;;;4955279;28;20035;-73
2022/06/11 12:26:25;;;;;;;6.50;1.35;;;;;;;;;;4967842;28;20474;-74
2022/06/11 12:29:09;;;;;;;7.97;1.77;;;;;;;;;;4965522;28;20469;-74
2022/06/11 12:31:37;;;;;;;8.02;1.58;;;;;;;;;;4965542;28;20449;-74
2022/06/11 12:34:11;;;;;;;4.60;1.25;;;;;;;;;;4971638;28;20114;-75
2022/06/11 12:37:00;;;;;;;6.90;1.50;;;;;;;;;;4962019;28;20027;-75
2022/06/11 12:39:46;;;;;;;5.55;1.30;;;;;;;;;;4967096;28;20325;-74
2022/06/11 12:42:31;;;;;;;8.13;1.67;;;;;;;;;;4967168;28;20441;-75
2022/06/11 12:44:58;;;;;;;;;;;;;;;;;;4965046;28;20419;-74
2022/06/11 12:47:33;;;;;;;6.75;1.70;;;;;;;;;;4969390;28;19922;-77
2022/06/11 12:50:19;;;;;;;7.57;1.63;;;;;;;;;;4973311;28;20570;-74
2022/06/11 12:52:58;;;;;;;6.40;1.40;;;;;;;;;;4974401;28;20038;-74
2022/06/11 12:55:36;;;;;;;9.65;1.48;;;;;;;;;;4964199;28;20038;-74
2022/06/11 12:58:08;;;;;;;5.85;1.30;;;;;;;;;;4963623;28;20030;-74
2022/06/11 13:00:38;;;;;;;5.65;1.20;;;;;;;;;;4963455;28;20047;-73
2022/06/11 13:03:07;;;;;;;6.63;1.20;;;;;;;;;;4972787;28;20449;-74
2022/06/11 13:05:39;;;;;;;7.20;1.48;;;;;;;;;;4963920;28;20027;-73
2022/06/11 13:08:12;;;;;;;9.15;1.33;;;;;;;;;;4965576;28;20045;-74
2022/06/11 13:10:39;;;;;;;6.47;1.35;;;;;;;;;;4963228;28;20037;-74
2022/06/11 13:13:35;;;;;;;8.52;1.20;;;;;;;;;;4978798;28;20041;-75
2022/06/11 13:16:19;;;;;;;9.65;1.70;;;;;;;;;;4900334;29;20043;-75
2022/06/11 13:18:52;;;;;;;4.70;1.20;;;;;;;;;;4896159;29;20079;-74
2022/06/11 13:21:41;;;;;;;5.55;1.30;;;;;;;;;;4914178;29;20115;-73
2022/06/11 13:24:16;;;;;;;6.70;1.33;;;;;;;;;;4911029;29;20032;-75
2022/06/11 13:26:57;;;;;;;6.32;1.38;;;;;;;;;;4913698;29;20126;-75
2022/06/11 13:29:24;;;;;;;8.50;2.10;;;;;;;;;;4909215;29;20121;-77
2022/06/11 13:32:00;;;;;;;6.90;1.60;;;;;;;;;;4897956;29;20581;-76
2022/06/11 13:34:35;;;;;;;8.95;1.77;;;;;;;;;;4912193;29;20070;-75
2022/06/11 13:37:21;;;;;;;8.75;1.80;;;;;;;;;;4890132;29;20036;-75
2022/06/11 13:39:50;;;;;;;9.57;1.75;;;;;;;;;;4877096;29;20336;-75
2022/06/11 13:42:22;;;;;;;8.00;1.58;;;;;;;;;;4888653;29;21120;-73
2022/06/11 13:45:02;;;;;;;9.32;1.60;;;;;;;;;;4891341;29;20603;-74
2022/06/11 13:47:46;;;;;;;9.35;2.08;;;;;;;;;;4912995;29;20374;-73
2022/06/11 13:50:31;;;;;;;10.00;1.97;;;;;;;;;;4911218;29;20059;-73
2022/06/11 13:56:23;;;;;;;11.15;1.90;;;;;;;;;;4965908;28;20081;-74
2022/06/11 13:59:10;;;;;;;10.35;2.03;;;;;;;;;;4964901;28;20092;-77
2022/06/11 14:01:42;;;;;;;7.03;1.67;;;;;;;;;;4963635;28;20092;-77
2022/06/11 14:04:27;;;;;;;8.77;2.00;;;;;;;;;;4964237;28;20501;-77
2022/06/11 14:06:55;;;;;;;;;;;;;;;;;;4965943;28;21202;-76
2022/06/11 14:12:31;;;;;;;7.75;1.73;;;;;;;;;;4972206;28;20445;-78
2022/06/11 14:15:16;;;;;;;8.07;1.80;;;;;;;;;;4963291;28;20027;-75
2022/06/11 14:17:51;;;;;;;9.10;1.77;;;;;;;;;;4959116;28;20035;-75
2022/06/11 14:20:24;;;;;;;10.07;2.08;;;;;;;;;;4967367;28;20686;-74
2022/06/11 14:22:55;;;;;;;9.63;1.85;;;;;;;;;;4958856;28;20099;-73
2022/06/11 14:25:42;;;;;;;10.85;2.08;;;;;;;;;;4935320;28;20637;-74
2022/06/11 14:28:17;;;;;;;10.90;2.10;;;;;;;;;;4958216;28;20137;-74
2022/06/11 14:30:54;;;;;;;10.25;1.73;;;;;;;;;;4957612;28;20031;-74
2022/06/11 14:33:21;;;;;;;9.15;1.98;;;;;;;;;;4947778;28;20388;-74
2022/06/11 14:35:50;;;;;;;9.07;1.98;;;;;;;;;;4955455;28;20806;-74
2022/06/11 14:38:17;;;;;;;12.30;2.13;;;;;;;;;;4966909;28;20065;-73
2022/06/11 14:40:45;;;;;;;13.57;2.15;;;;;;;;;;4958760;28;20468;-73
2022/06/11 14:43:15;;;;;;;8.07;1.83;;;;;;;;;;4962943;28;20037;-73
2022/06/11 14:45:49;;;;;;;9.93;2.00;;;;;;;;;;4957649;28;20031;-73
2022/06/11 14:48:35;;;;;;;9.23;1.92;;;;;;;;;;4961585;28;20475;-74
2022/06/11 14:51:04;;;;;;;10.90;1.90;;;;;;;;;;4957614;28;20034;-73
2022/06/11 14:53:55;;;;;;;8.95;1.75;;;;;;;;;;4962108;28;20334;-74
2022/06/11 14:56:29;;;;;;;10.00;2.45;;;;;;;;;;4962251;28;20050;-74
2022/06/11 14:58:58;;;;;;;11.47;2.30;;;;;;;;;;4953272;28;20429;-73
2022/06/11 15:01:37;;;;;;;11.88;2.50;;;;;;;;;;4962380;28;20279;-73
2022/06/11 15:04:09;;;;;;;7.47;1.60;;;;;;;;;;4956411;28;20451;-73
2022/06/11 15:06:44;;;;;;;8.77;1.80;;;;;;;;;;4951473;28;20360;-75
2022/06/11 15:09:20;;;;;;;7.18;1.50;;;;;;;;;;4960576;28;20036;-75
2022/06/11 15:11:53;;;;;;;9.30;2.20;;;;;;;;;;4940262;28;20060;-75
2022/06/11 15:14:38;;;;;;;8.80;1.73;;;;;;;;;;4960013;28;20028;-74
2022/06/11 15:17:18;;;;;;;9.18;2.00;;;;;;;;;;4955745;28;20045;-74
2022/06/11 15:19:47;;;;;;;10.18;2.20;;;;;;;;;;4948947;28;20543;-74